NCAR-RAP Real-Time Weather Data

Output produced by METARs form (12 May 2021  11:31 UTC)
found at http://weather.rap.ucar.edu/surface/
 
KSAN 121051Z 00000KT 10SM OVC013 17/12 A2999 RMK AO2 SLP155 T01720122
KSAN 120951Z 00000KT 10SM OVC013 17/12 A2999 RMK AO2 SLP154 T01670122
KSAN 120851Z 03004KT 10SM OVC014 17/12 A2999 RMK AO2 SLP156 T01720122 50001
KSAN 120751Z 00000KT 10SM BKN015 17/12 A3000 RMK AO2 SLP158 T01720122 401940161
KSAN 120651Z 28003KT 10SM SCT015 17/12 A3000 RMK AO2 SLP158 T01670122
KSAN 120551Z 31003KT 10SM SCT016 17/12 A2999 RMK AO2 SLP155 T01670117 10194 20167 53007
KSAN 120451Z 29004KT 10SM FEW016 17/12 A2999 RMK AO2 SLP154 T01670117
KSAN 120420Z 31003KT 10SM SCT017 17/11 A2998 RMK AO2 T01670111
KSAN 120351Z 32004KT 10SM BKN016 17/11 A2997 RMK AO2 SLP149 T01670111
KSAN 120347Z 31003KT 10SM BKN016 17/11 A2997 RMK AO2
KSAN 120251Z 30004KT 10SM SCT019 17/11 A2996 RMK AO2 SLP143 T01720111 53009
KSAN 120151Z 28005KT 10SM SCT019 18/12 A2994 RMK AO2 SLP139 T01780117
KSAN 120051Z 23007KT 180V250 10SM SCT020 19/12 A2994 RMK AO2 SLP137 T01890117
KSAN 112351Z VRB05KT 10SM SCT020 19/12 A2993 RMK AO2 SLP134 T01940117 10194 20172 56004
KSAN 112342Z 25006KT 10SM SCT020 19/12 A2993 RMK AO2 T01940117
KSAN 112251Z 31005KT 10SM BKN020 19/12 A2993 RMK AO2 SLP135 T01890117